Time;durP1;ratioP1;P1;durP2;ratioP2;P2;SDS_P1;SDS_P2;PMS_P1;PMS_P2;Temp;Humidity;BMP_temperature;BMP_pressure;BME280_temperature;BME280_humidity;BME280_pressure;Samples;Min_cycle;Max_cycle;Signal;HPM_P1;HPM_P2
2023/10/04 00:00:49;;;;;;;;;19.20;17.40;;;;;18.07;40.37;99726.84;5096524;27;8879;-71
2023/10/04 00:03:39;;;;;;;;;17.00;16.20;;;;;18.11;40.53;99712.44;5132209;27;8849;-73
2023/10/04 00:06:09;;;;;;;;;18.00;17.60;;;;;18.12;40.44;99716.84;5131419;27;8861;-70
2023/10/04 00:08:39;;;;;;;;;20.40;20.00;;;;;18.17;40.50;99727.25;5132367;27;8829;-71
2023/10/04 00:11:14;;;;;;;;;25.40;23.00;;;;;17.81;41.82;99727.22;5113930;27;8849;-72
2023/10/04 00:13:44;;;;;;;;;20.80;19.60;;;;;17.16;43.66;99733.72;5113619;27;8888;-71
2023/10/04 00:16:14;;;;;;;;;24.80;23.40;;;;;15.85;46.61;99738.38;5113600;27;8841;-69
2023/10/04 00:18:43;;;;;;;;;22.00;20.80;;;;;15.73;47.25;99738.84;5131370;27;8857;-72
2023/10/04 00:21:12;;;;;;;;;23.20;21.60;;;;;15.53;47.50;99732.50;5093240;28;8904;-71
2023/10/04 00:23:43;;;;;;;;;22.20;20.40;;;;;15.58;47.17;99738.47;5076381;28;8861;-70
2023/10/04 00:26:12;;;;;;;;;19.40;18.60;;;;;15.71;46.65;99736.25;5117256;27;10154;-70
2023/10/04 00:28:42;;;;;;;;;22.80;22.20;;;;;15.93;46.33;99736.28;5130640;27;9612;-71
2023/10/04 00:31:13;;;;;;;;;18.00;18.00;;;;;16.11;45.85;99745.25;5132138;27;8879;-71
2023/10/04 00:33:43;;;;;;;;;20.40;20.00;;;;;16.22;45.31;99737.72;5113560;27;9712;-69
2023/10/04 00:36:13;;;;;;;;;22.20;20.40;;;;;16.35;45.15;99737.22;5112172;27;8918;-71
2023/10/04 00:38:44;;;;;;;;;18.60;16.40;;;;;16.48;44.83;99741.13;5131426;27;8849;-71
2023/10/04 00:41:12;;;;;;;;;19.20;19.20;;;;;16.55;45.07;99741.69;5113542;27;8849;-70
2023/10/04 00:43:49;;;;;;;;;20.80;18.60;;;;;16.71;44.88;99741.94;5113596;27;8830;-69
2023/10/04 00:46:20;;;;;;;;;20.20;19.20;;;;;16.68;44.59;99739.38;5131632;27;8849;-71
2023/10/04 00:48:51;;;;;;;;;21.20;21.00;;;;;16.75;44.39;99735.56;5067634;28;8847;-72
2023/10/04 00:51:22;;;;;;;;;22.60;21.40;;;;;16.76;44.71;99738.13;5066768;28;8863;-72
2023/10/04 00:53:55;;;;;;;;;26.20;23.40;;;;;16.80;44.05;99739.72;5067739;28;8863;-70
2023/10/04 00:56:25;;;;;;;;;18.40;17.40;;;;;16.77;44.53;99739.00;5067523;28;8864;-70
2023/10/04 00:58:59;;;;;;;;;20.20;20.20;;;;;16.83;43.94;99740.53;5047438;28;8834;-71
2023/10/04 01:01:28;;;;;;;;;20.20;19.80;;;;;16.85;43.84;99742.16;5019655;28;8962;-73
2023/10/04 01:03:58;;;;;;;;;21.40;20.80;;;;;16.87;43.72;99743.00;4978487;28;8877;-71
2023/10/04 01:06:28;;;;;;;;;19.60;18.00;;;;;16.81;44.08;99740.59;5027019;28;8856;-73
2023/10/04 01:08:58;;;;;;;;;24.20;22.40;;;;;16.84;44.04;99750.22;5027416;28;8833;-72
2023/10/04 01:11:28;;;;;;;;;22.20;22.20;;;;;16.83;43.82;99744.03;5027174;28;8868;-70
2023/10/04 01:14:09;;;;;;;;;20.20;19.80;;;;;16.88;43.59;99749.16;4963393;28;8853;-70
2023/10/04 01:16:41;;;;;;;;;22.20;20.40;;;;;16.87;43.63;99742.09;5027427;28;8926;-69
2023/10/04 01:19:14;;;;;;;;;22.60;21.60;;;;;16.89;43.31;99740.25;5009617;28;8828;-72
2023/10/04 01:21:42;;;;;;;;;20.40;20.40;;;;;16.89;43.30;99743.78;5007244;28;9017;-72
2023/10/04 01:24:13;;;;;;;;;21.00;20.00;;;;;16.92;43.29;99742.78;4991050;28;8851;-71
2023/10/04 01:26:42;;;;;;;;;21.80;20.20;;;;;16.93;42.97;99741.84;5039303;28;8875;-69
2023/10/04 01:29:13;;;;;;;;;22.80;20.60;;;;;16.97;43.27;99743.44;5016314;28;9576;-71
2023/10/04 01:31:43;;;;;;;;;21.20;20.00;;;;;16.96;43.12;99747.00;5049958;28;8871;-70
2023/10/04 01:34:13;;;;;;;;;19.40;18.60;;;;;16.95;43.57;99747.97;5076728;28;8868;-70
2023/10/04 01:36:42;;;;;;;;;21.20;20.40;;;;;16.94;43.84;99757.69;5090203;28;8848;-69
2023/10/04 01:39:19;;;;;;;;;24.20;22.40;;;;;16.93;43.96;99755.13;5090221;28;8828;-70
2023/10/04 01:41:49;;;;;;;;;17.80;17.40;;;;;16.99;43.13;99752.19;5107343;28;8840;-71
2023/10/04 01:44:18;;;;;;;;;18.00;17.20;;;;;17.03;43.32;99760.91;5089869;28;8847;-71
2023/10/04 01:46:46;;;;;;;;;21.60;20.00;;;;;17.07;43.43;99757.16;5086664;28;8938;-73
2023/10/04 01:49:15;;;;;;;;;24.40;20.60;;;;;17.09;43.38;99742.88;5098655;28;8866;-71
2023/10/04 01:51:44;;;;;;;;;22.20;20.80;;;;;17.09;43.11;99750.84;5054839;28;8854;-71
2023/10/04 01:54:18;;;;;;;;;21.00;19.40;;;;;17.14;43.19;99751.50;5089913;28;8828;-71
2023/10/04 01:56:47;;;;;;;;;19.00;17.60;;;;;17.13;43.11;99748.91;5090000;28;8848;-71
2023/10/04 01:59:17;;;;;;;;;21.60;20.00;;;;;17.15;43.18;99736.44;5090063;28;8870;-73
2023/10/04 02:01:46;;;;;;;;;16.80;15.20;;;;;17.17;42.90;99755.81;5090048;28;9729;-71
2023/10/04 02:04:15;;;;;;;;;21.00;17.40;;;;;17.17;42.91;99758.47;5106897;28;8847;-71
2023/10/04 02:06:44;;;;;;;;;17.40;17.00;;;;;17.03;43.52;99755.59;5111522;27;8973;-74
2023/10/04 02:09:12;;;;;;;;;22.40;20.80;;;;;17.10;43.57;99760.56;5109805;28;8832;-73
2023/10/04 02:11:42;;;;;;;;;23.00;22.00;;;;;17.15;43.41;99765.66;5057149;28;8961;-71
2023/10/04 02:14:12;;;;;;;;;23.00;20.40;;;;;17.10;43.89;99765.00;5091095;28;8832;-73
2023/10/04 02:16:41;;;;;;;;;21.40;21.00;;;;;17.08;44.50;99766.84;5073875;28;8864;-73
2023/10/04 02:19:11;;;;;;;;;24.60;22.00;;;;;16.99;44.65;99761.03;5091355;28;8820;-73
2023/10/04 02:21:40;;;;;;;;;24.60;23.40;;;;;16.99;44.23;99769.00;5109886;27;8946;-72
2023/10/04 02:24:10;;;;;;;;;19.60;19.40;;;;;16.92;44.11;99770.19;5106436;28;8828;-71
2023/10/04 02:26:41;;;;;;;;;22.40;20.80;;;;;16.61;44.95;99768.84;5072772;28;8852;-70
2023/10/04 02:29:12;;;;;;;;;24.60;21.80;;;;;16.43;45.15;99772.25;5072685;28;8843;-73
2023/10/04 02:31:41;;;;;;;;;23.00;21.80;;;;;16.60;45.04;99771.56;5109429;27;8845;-69
2023/10/04 02:34:12;;;;;;;;;21.20;20.20;;;;;16.67;44.95;99775.69;5109896;27;8833;-71
2023/10/04 02:36:43;;;;;;;;;21.80;20.40;;;;;16.73;44.75;99775.44;5100377;27;8849;-72
2023/10/04 02:39:13;;;;;;;;;23.60;22.80;;;;;16.76;44.73;99780.63;5109786;27;8858;-71
2023/10/04 02:41:43;;;;;;;;;20.40;19.20;;;;;16.79;44.79;99777.81;5109732;27;8861;-70
2023/10/04 02:44:17;;;;;;;;;24.80;24.40;;;;;16.81;44.72;99780.41;5120805;27;8836;-69
2023/10/04 02:46:48;;;;;;;;;19.80;19.40;;;;;16.81;44.50;99783.06;5055833;28;8844;-73
2023/10/04 02:49:17;;;;;;;;;23.00;21.00;;;;;16.82;44.67;99778.63;5106136;28;8847;-70
2023/10/04 02:51:46;;;;;;;;;24.00;21.20;;;;;16.79;44.77;99783.13;5038594;28;8850;-71
2023/10/04 02:54:17;;;;;;;;;24.40;24.40;;;;;16.81;44.80;99783.06;5090162;27;9745;-72
2023/10/04 02:56:50;;;;;;;;;29.20;22.20;;;;;16.78;45.25;99792.03;5110997;27;8845;-70
2023/10/04 02:59:24;;;;;;;;;23.40;20.60;;;;;16.78;45.14;99794.69;5110746;27;8845;-73
2023/10/04 03:01:53;;;;;;;;;25.20;22.80;;;;;16.76;45.29;99796.53;5093201;27;8908;-71
2023/10/04 03:04:22;;;;;;;;;24.60;24.00;;;;;16.73;45.37;99796.66;5129074;27;8928;-69
2023/10/04 03:06:52;;;;;;;;;22.60;22.60;;;;;16.73;45.25;99801.97;5067518;27;8844;-71
2023/10/04 03:09:23;;;;;;;;;22.20;21.00;;;;;16.70;45.34;99791.50;5131544;27;8831;-71
2023/10/04 03:11:53;;;;;;;;;19.80;19.60;;;;;16.70;44.91;99796.81;5064374;27;8994;-72
2023/10/04 03:14:25;;;;;;;;;21.60;21.00;;;;;16.71;45.32;99798.53;5105557;28;8849;-70
2023/10/04 03:16:54;;;;;;;;;22.40;20.80;;;;;16.65;45.53;99812.06;5038798;28;8849;-71
2023/10/04 03:19:25;;;;;;;;;16.20;14.60;;;;;16.63;45.44;99815.72;5100157;28;8827;-71
2023/10/04 03:21:55;;;;;;;;;21.00;20.40;;;;;16.64;45.71;99807.66;5021138;28;8834;-70
2023/10/04 03:24:25;;;;;;;;;24.80;23.60;;;;;16.59;45.70;99818.50;5048521;28;8837;-69
2023/10/04 03:26:53;;;;;;;;;28.80;27.60;;;;;16.03;48.01;99838.38;5065205;28;10057;-71
2023/10/04 03:29:24;;;;;;;;;24.60;24.20;;;;;15.80;48.92;99841.06;5071974;28;8866;-71
2023/10/04 03:31:54;;;;;;;;;24.40;22.60;;;;;15.98;48.39;99847.44;5068584;28;8847;-71
2023/10/04 03:34:23;;;;;;;;;27.40;25.80;;;;;16.03;48.35;99837.50;5068405;28;8843;-71
2023/10/04 03:36:53;;;;;;;;;29.00;26.80;;;;;16.09;48.29;99833.75;5077456;28;8847;-71
2023/10/04 03:39:28;;;;;;;;;30.80;28.00;;;;;16.14;47.96;99834.47;5051807;28;8905;-71
2023/10/04 03:42:00;;;;;;;;;29.80;28.00;;;;;16.16;48.11;99835.25;5068353;28;8851;-70
2023/10/04 03:44:31;;;;;;;;;28.80;26.00;;;;;16.19;47.94;99843.97;5070193;27;8916;-69
2023/10/04 03:47:01;;;;;;;;;28.00;26.00;;;;;16.20;47.97;99842.16;5110375;27;8845;-71
2023/10/04 03:49:30;;;;;;;;;24.40;22.60;;;;;16.23;47.39;99844.69;5110384;27;8902;-71
2023/10/04 03:51:59;;;;;;;;;22.40;22.40;;;;;16.22;47.58;99848.25;5108866;27;9637;-70
2023/10/04 03:54:30;;;;;;;;;29.80;28.00;;;;;16.24;47.39;99857.03;5076276;27;8853;-72
2023/10/04 03:56:59;;;;;;;;;23.60;20.40;;;;;15.89;47.72;99856.63;5128941;27;8884;-72
2023/10/04 03:59:28;;;;;;;;;28.60;24.60;;;;;15.20;50.47;99872.34;5128931;27;8845;-70
2023/10/04 04:01:59;;;;;;;;;21.20;21.20;;;;;15.19;49.88;99879.44;5128789;27;8849;-71
2023/10/04 04:04:28;;;;;;;;;22.80;22.80;;;;;14.98;50.44;99880.16;5110041;27;8872;-71
2023/10/04 04:06:57;;;;;;;;;25.60;22.40;;;;;14.93;50.87;99872.38;5108662;27;8935;-72
2023/10/04 04:09:26;;;;;;;;;25.60;24.00;;;;;15.25;50.44;99879.22;5128549;27;8850;-72
2023/10/04 04:11:55;;;;;;;;;21.80;20.60;;;;;15.09;49.88;99880.66;5110432;27;8845;-69
2023/10/04 04:14:24;;;;;;;;;20.40;20.40;;;;;14.78;50.75;99891.41;5130230;27;8857;-71
2023/10/04 04:16:55;;;;;;;;;22.80;21.00;;;;;14.43;52.54;99898.66;5113786;27;8877;-71
2023/10/04 04:19:27;;;;;;;;;26.60;22.20;;;;;14.22;53.81;99884.31;5113433;27;8854;-71
2023/10/04 04:21:57;;;;;;;;;25.60;25.20;;;;;14.22;54.37;99892.25;5131669;27;8883;-69
2023/10/04 04:24:27;;;;;;;;;28.60;26.60;;;;;14.09;54.93;99902.31;5079946;27;8837;-71
2023/10/04 04:26:58;;;;;;;;;28.60;25.40;;;;;13.94;55.44;99908.94;5113558;27;8883;-71
2023/10/04 04:29:28;;;;;;;;;31.00;27.20;;;;;14.11;55.12;99900.53;5112140;27;8853;-70
2023/10/04 04:31:58;;;;;;;;;25.20;25.20;;;;;14.47;53.65;99898.53;5113158;27;8995;-70
2023/10/04 04:34:29;;;;;;;;;25.80;25.40;;;;;14.65;53.12;99899.69;5113395;27;8829;-72
2023/10/04 04:36:59;;;;;;;;;35.80;33.00;;;;;14.45;54.23;99915.34;5131452;27;9758;-71
2023/10/04 04:39:28;;;;;;;;;32.60;30.20;;;;;14.68;53.12;99904.06;5096240;27;8845;-71
2023/10/04 04:41:59;;;;;;;;;37.60;31.80;;;;;14.33;54.08;99921.03;5112954;27;8900;-71
2023/10/04 04:44:40;;;;;;;;;21.40;17.40;;;;;14.32;54.20;99916.63;5112191;27;8841;-72
2023/10/04 04:47:10;;;;;;;;;29.60;25.80;;;;;14.68;52.98;99906.69;5078723;28;8995;-74
2023/10/04 04:49:42;;;;;;;;;26.60;26.40;;;;;14.90;52.30;99906.00;5087817;28;8856;-72
2023/10/04 04:52:12;;;;;;;;;29.60;29.60;;;;;15.09;51.77;99895.69;5086957;28;8822;-73
2023/10/04 04:54:42;;;;;;;;;28.80;27.00;;;;;15.27;51.23;99900.34;5038466;28;8902;-70
2023/10/04 04:57:11;;;;;;;;;35.00;30.60;;;;;15.41;50.97;99905.16;5037911;28;8990;-72
2023/10/04 04:59:42;;;;;;;;;32.40;30.60;;;;;15.51;50.61;99905.69;5046169;28;8858;-70
2023/10/04 05:02:11;;;;;;;;;28.40;27.00;;;;;15.65;49.88;99903.44;5080350;28;9680;-73
2023/10/04 05:04:43;;;;;;;;;31.40;30.20;;;;;15.75;49.66;99899.53;5039672;28;8886;-76
2023/10/04 05:07:12;;;;;;;;;30.80;28.60;;;;;15.80;49.59;99913.47;5047617;28;8871;-74
2023/10/04 05:09:42;;;;;;;;;34.40;31.00;;;;;15.85;49.27;99915.97;5067150;28;8847;-73
2023/10/04 05:12:11;;;;;;;;;19.80;18.60;;;;;15.84;49.06;99923.03;5066378;28;9726;-73
2023/10/04 05:14:41;;;;;;;;;23.60;23.20;;;;;15.95;48.94;99916.50;5082826;28;8860;-72
2023/10/04 05:17:09;;;;;;;;;24.00;19.20;;;;;16.03;48.78;99909.13;5060834;28;8868;-74
2023/10/04 05:19:38;;;;;;;;;29.60;29.60;;;;;16.08;48.89;99916.88;5087130;28;8830;-73
2023/10/04 05:22:09;;;;;;;;;25.40;25.20;;;;;16.14;48.98;99919.31;5085144;28;8857;-72
2023/10/04 05:24:38;;;;;;;;;26.20;25.00;;;;;16.18;48.71;99919.13;5066082;28;8901;-73
2023/10/04 05:27:07;;;;;;;;;31.60;29.80;;;;;16.14;48.77;99927.28;5066773;28;9617;-72
2023/10/04 05:29:36;;;;;;;;;29.00;27.80;;;;;16.10;49.03;99923.03;5065061;28;8840;-73
2023/10/04 05:32:05;;;;;;;;;31.40;29.20;;;;;16.14;48.90;99929.94;5109100;27;8862;-72
2023/10/04 05:34:34;;;;;;;;;33.20;29.80;;;;;16.15;48.60;99932.53;5078144;27;8865;-73
2023/10/04 05:37:03;;;;;;;;;27.20;25.60;;;;;15.92;49.48;99933.38;5130002;27;8865;-72
2023/10/04 05:39:34;;;;;;;;;31.40;27.80;;;;;15.91;49.68;99947.56;5130705;27;8834;-74
2023/10/04 05:42:02;;;;;;;;;33.00;31.00;;;;;15.93;49.64;99937.75;5073629;27;8965;-73
2023/10/04 05:44:31;;;;;;;;;32.60;31.00;;;;;15.96;49.31;99947.38;5124417;27;8868;-74
2023/10/04 05:47:00;;;;;;;;;28.40;27.60;;;;;15.99;49.43;99952.59;5129203;27;8913;-73
2023/10/04 05:49:29;;;;;;;;;29.40;29.00;;;;;16.03;49.05;99948.88;5130529;27;8840;-75
2023/10/04 05:51:58;;;;;;;;;28.60;27.40;;;;;16.04;49.27;99961.25;5130177;27;8841;-75
2023/10/04 05:54:27;;;;;;;;;28.80;28.80;;;;;15.99;49.45;99968.50;5128368;27;8833;-73
2023/10/04 05:56:57;;;;;;;;;34.40;32.40;;;;;16.06;49.18;99972.66;5129817;27;8898;-76
2023/10/04 05:59:26;;;;;;;;;29.40;29.00;;;;;16.16;48.98;99968.72;5128025;27;8861;-74
2023/10/04 06:01:55;;;;;;;;;29.60;28.00;;;;;16.18;49.07;99971.31;5129331;27;8860;-73
2023/10/04 06:04:24;;;;;;;;;27.40;24.80;;;;;16.22;48.94;99978.25;5130244;27;8857;-72
2023/10/04 06:06:54;;;;;;;;;28.20;25.40;;;;;16.30;49.11;99977.94;5129929;27;8861;-74
2023/10/04 06:09:29;;;;;;;;;33.00;30.00;;;;;16.41;48.96;99991.66;5129481;27;8864;-73
2023/10/04 06:12:01;;;;;;;;;30.20;29.00;;;;;16.42;49.06;99988.09;5129645;27;8881;-74
2023/10/04 06:14:30;;;;;;;;;30.80;29.60;;;;;16.55;48.88;99984.09;5129735;27;8936;-77
2023/10/04 06:16:59;;;;;;;;;28.00;26.20;;;;;16.61;49.04;99991.81;5129526;27;8884;-72
2023/10/04 06:19:29;;;;;;;;;33.00;30.60;;;;;16.64;49.09;99992.59;5111111;27;8849;-72
2023/10/04 06:21:59;;;;;;;;;29.00;26.80;;;;;16.63;49.56;100001.50;5133696;27;8926;-80
2023/10/04 06:24:28;;;;;;;;;30.00;28.60;;;;;16.78;49.08;100008.88;5112446;27;8822;-81
2023/10/04 06:26:59;;;;;;;;;31.40;30.00;;;;;16.88;49.07;100012.88;5095240;27;8884;-83
2023/10/04 06:29:28;;;;;;;;;36.20;32.20;;;;;16.95;49.07;100016.16;5134085;27;9644;-77
2023/10/04 06:31:57;;;;;;;;;35.20;32.40;;;;;16.99;49.18;100009.81;5129532;27;8834;-77
2023/10/04 06:34:27;;;;;;;;;35.80;32.20;;;;;17.09;49.01;100008.50;5130076;27;8857;-78
2023/10/04 06:36:55;;;;;;;;;30.60;29.60;;;;;17.19;49.21;100023.16;5111192;27;8971;-80
2023/10/04 06:39:25;;;;;;;;;34.60;31.40;;;;;16.91;49.91;100035.78;5111148;27;8845;-78
2023/10/04 06:41:53;;;;;;;;;31.80;30.00;;;;;17.03;50.01;100037.09;5111282;27;8838;-79
2023/10/04 06:44:27;;;;;;;;;32.80;30.20;;;;;16.30;52.59;100054.88;5108384;27;8946;-79
2023/10/04 06:46:56;;;;;;;;;33.80;30.20;;;;;16.43;52.54;100043.75;5108043;27;8903;-77
2023/10/04 06:49:24;;;;;;;;;40.20;33.00;;;;;15.74;55.23;100055.97;5120705;27;8875;-78
2023/10/04 06:51:53;;;;;;;;;38.60;35.00;;;;;15.43;56.65;100065.78;5076562;27;8838;-69
2023/10/04 06:54:22;;;;;;;;;39.75;35.00;;;;;15.81;55.67;100053.06;5128874;27;8883;-69
2023/10/04 06:56:52;;;;;;;;;40.25;35.00;;;;;15.58;56.72;100060.88;5128798;27;8925;-68
2023/10/04 06:59:22;;;;;;;;;40.00;34.00;;;;;15.20;58.18;100063.00;5129077;27;8825;-70
2023/10/04 07:01:52;;;;;;;;;45.25;35.50;;;;;15.66;56.99;100060.66;5128858;27;8833;-69
2023/10/04 07:04:21;;;;;;;;;37.75;33.50;;;;;16.13;55.75;100061.66;5129124;27;8854;-69
2023/10/04 07:06:50;;;;;;;;;41.50;35.25;;;;;16.30;55.09;100065.50;5110210;27;8934;-70
2023/10/04 07:09:19;;;;;;;;;42.00;34.75;;;;;16.59;54.31;100056.50;5059743;27;8884;-69
2023/10/04 07:11:48;;;;;;;;;36.75;33.00;;;;;16.57;54.69;100072.47;5128767;27;8842;-69
2023/10/04 07:14:17;;;;;;;;;38.25;33.75;;;;;16.78;53.80;100076.09;5128831;27;8838;-68
2023/10/04 07:16:46;;;;;;;;;38.50;33.75;;;;;16.97;53.12;100068.28;5110358;27;8848;-69
2023/10/04 07:19:16;;;;;;;;;41.50;35.75;;;;;17.15;52.92;100079.09;5129137;27;8856;-69
2023/10/04 07:21:45;;;;;;;;;39.50;34.00;;;;;16.75;54.42;100078.84;5128986;27;8834;-69
2023/10/04 07:24:14;;;;;;;;;40.75;33.25;;;;;17.02;53.60;100077.84;5129106;27;8861;-69
2023/10/04 07:26:45;;;;;;;;;42.25;36.00;;;;;16.63;54.99;100082.00;5129005;27;8853;-71
2023/10/04 07:29:14;;;;;;;;;42.50;36.00;;;;;17.06;53.81;100079.47;5128680;27;8865;-67
2023/10/04 07:31:44;;;;;;;;;44.00;35.25;;;;;16.55;55.61;100086.69;5128566;27;9650;-68
2023/10/04 07:34:14;;;;;;;;;40.25;34.50;;;;;16.84;54.65;100082.97;5110336;27;8848;-68
2023/10/04 07:36:45;;;;;;;;;41.00;35.00;;;;;16.41;55.53;100084.53;5076135;27;8841;-68
2023/10/04 07:39:15;;;;;;;;;45.50;38.25;;;;;16.41;56.17;100081.88;5043457;27;8870;-68
2023/10/04 07:41:44;;;;;;;;;38.00;34.25;;;;;16.18;56.84;100082.72;5128513;27;8880;-68
2023/10/04 07:44:13;;;;;;;;;42.75;36.75;;;;;16.02;57.52;100087.72;5110338;27;8833;-68
2023/10/04 07:46:42;;;;;;;;;40.50;35.25;;;;;16.31;56.81;100084.00;5111793;27;8837;-70
2023/10/04 07:49:11;;;;;;;;;43.00;35.75;;;;;15.86;57.60;100089.16;5132056;27;8991;-71
2023/10/04 07:51:40;;;;;;;;;45.25;38.00;;;;;15.92;57.47;100096.88;5079723;27;8845;-70
2023/10/04 07:54:10;;;;;;;;;53.75;43.75;;;;;16.15;57.15;100082.81;5087772;28;9596;-71
2023/10/04 07:56:40;;;;;;;;;44.75;38.25;;;;;16.12;57.37;100099.72;5093720;28;9723;-67
2023/10/04 07:59:08;;;;;;;;;45.25;38.25;;;;;15.57;59.20;100106.88;5111725;28;8979;-68
2023/10/04 08:01:39;;;;;;;;;47.75;41.25;;;;;15.51;59.47;100097.34;5121027;27;8838;-68
2023/10/04 08:04:08;;;;;;;;;45.00;39.00;;;;;15.56;59.33;100097.16;5113979;27;8975;-71
2023/10/04 08:06:37;;;;;;;;;45.75;37.50;;;;;15.47;59.87;100100.97;5132421;27;8850;-71
2023/10/04 08:09:06;;;;;;;;;43.25;36.25;;;;;15.34;60.35;100092.59;5132417;27;8864;-68
2023/10/04 08:11:37;;;;;;;;;43.50;37.50;;;;;15.39;60.02;100098.56;5096115;27;8813;-71
2023/10/04 08:14:07;;;;;;;;;45.00;38.50;;;;;15.17;60.52;100110.75;5131876;27;8868;-69
2023/10/04 08:16:36;;;;;;;;;46.75;39.25;;;;;15.38;60.84;100096.00;5131939;27;8829;-68
2023/10/04 08:19:05;;;;;;;;;47.00;40.00;;;;;15.67;59.85;100104.81;5131809;27;8847;-68
2023/10/04 08:21:34;;;;;;;;;51.00;42.75;;;;;15.98;59.01;100096.66;5113755;27;8837;-68
2023/10/04 08:24:03;;;;;;;;;46.50;39.00;;;;;15.80;59.52;100103.47;5131866;27;8937;-70
2023/10/04 08:26:33;;;;;;;;;50.25;42.75;;;;;15.99;59.33;100106.38;5131694;27;8937;-69
2023/10/04 08:29:05;;;;;;;;;46.50;39.00;;;;;15.97;58.85;100101.13;5131738;27;8845;-68
2023/10/04 08:31:34;;;;;;;;;46.75;39.00;;;;;16.52;57.47;100098.31;5131650;27;8868;-69
2023/10/04 08:34:03;;;;;;;;;44.50;37.25;;;;;16.15;58.05;100107.59;5131611;27;8899;-69
2023/10/04 08:36:33;;;;;;;;;46.00;38.25;;;;;16.31;57.91;100101.72;5131760;27;8845;-70
2023/10/04 08:39:10;;;;;;;;;47.25;39.25;;;;;16.29;57.96;100103.56;5131145;27;8918;-68
2023/10/04 08:41:40;;;;;;;;;44.75;37.25;;;;;16.48;57.34;100093.19;5131499;27;8837;-72
2023/10/04 08:44:11;;;;;;;;;40.25;35.75;;;;;17.07;55.76;100090.03;5130994;27;8853;-69
2023/10/04 08:46:44;;;;;;;;;38.75;34.75;;;;;17.50;54.38;100093.66;5131542;27;8837;-70
2023/10/04 08:49:16;;;;;;;;;29.75;27.00;;;;;17.79;53.08;100094.22;5131501;27;8899;-71
2023/10/04 08:51:51;;;;;;;;;33.60;29.80;;;;;17.79;52.66;100102.22;5131550;27;8857;-68
2023/10/04 08:54:24;;;;;;;;;32.20;30.00;;;;;17.85;52.59;100104.59;5079085;27;8833;-70
2023/10/04 08:56:59;;;;;;;;;27.00;25.00;;;;;18.45;50.92;100119.81;5112570;27;8833;-71
2023/10/04 08:59:30;;;;;;;;;23.20;21.40;;;;;18.65;48.85;100113.59;5130341;27;8849;-70
2023/10/04 09:02:00;;;;;;;;;23.80;21.00;;;;;18.64;48.71;100111.88;5130841;27;8837;-70
2023/10/04 09:04:31;;;;;;;;;20.80;18.60;;;;;18.94;47.72;100114.94;5062570;27;9574;-71
2023/10/04 09:07:03;;;;;;;;;22.00;20.80;;;;;19.17;47.15;100121.84;5130881;27;8864;-69
2023/10/04 09:09:33;;;;;;;;;21.20;20.60;;;;;19.06;47.12;100124.16;5112616;27;8980;-69
2023/10/04 09:12:02;;;;;;;;;19.20;17.80;;;;;19.45;46.24;100120.53;5130940;27;8845;-71
2023/10/04 09:14:33;;;;;;;;;23.20;22.00;;;;;19.09;46.37;100121.34;5131108;27;8879;-72
2023/10/04 09:17:06;;;;;;;;;19.40;18.80;;;;;18.64;48.16;100126.03;5078222;27;8841;-71
2023/10/04 09:19:35;;;;;;;;;16.80;15.40;;;;;18.45;49.04;100126.00;5077330;27;8837;-69
2023/10/04 09:22:06;;;;;;;;;25.20;22.40;;;;;18.71;48.56;100135.47;5131302;27;8849;-68
2023/10/04 09:24:37;;;;;;;;;22.60;21.40;;;;;17.89;50.32;100132.81;5130533;27;8854;-71
2023/10/04 09:27:07;;;;;;;;;21.60;19.00;;;;;17.92;50.49;100132.69;5130444;27;8842;-69
2023/10/04 09:29:38;;;;;;;;;19.00;18.20;;;;;18.31;49.76;100134.59;5130719;27;8841;-68
2023/10/04 09:32:07;;;;;;;;;22.00;21.00;;;;;18.29;49.38;100136.47;5130425;27;8849;-69
2023/10/04 09:34:36;;;;;;;;;21.00;19.20;;;;;17.91;49.88;100149.59;5111871;27;9727;-69
2023/10/04 09:37:18;;;;;;;;;21.80;20.40;;;;;18.52;48.63;100154.09;5130618;27;8845;-68
2023/10/04 09:39:47;;;;;;;;;15.80;15.80;;;;;18.41;48.69;100160.81;5130236;27;8842;-68
2023/10/04 09:42:16;;;;;;;;;18.80;18.80;;;;;18.33;49.12;100142.53;5130585;27;8872;-70
2023/10/04 09:44:47;;;;;;;;;16.80;16.80;;;;;18.35;49.17;100156.63;5130539;27;8858;-70
2023/10/04 09:47:16;;;;;;;;;12.60;12.60;;;;;18.25;49.33;100153.50;5078233;27;8872;-70
2023/10/04 09:49:51;;;;;;;;;14.00;12.80;;;;;17.98;49.80;100156.34;5129796;27;8854;-70
2023/10/04 09:52:22;;;;;;;;;19.00;17.20;;;;;18.28;48.68;100150.69;5130123;27;8861;-69
2023/10/04 09:54:53;;;;;;;;;18.40;17.40;;;;;18.47;48.26;100149.88;5130011;27;8837;-69
2023/10/04 09:57:23;;;;;;;;;17.60;17.60;;;;;18.77;47.11;100162.78;5078885;27;8838;-72
2023/10/04 09:59:56;;;;;;;;;18.40;16.80;;;;;18.49;47.39;100156.00;5111217;27;8841;-69
2023/10/04 10:02:31;;;;;;;;;17.40;15.40;;;;;18.88;46.17;100148.06;5130130;27;8876;-70
2023/10/04 10:05:02;;;;;;;;;20.40;15.00;;;;;19.15;45.73;100154.84;5129876;27;8888;-71
2023/10/04 10:07:34;;;;;;;;;16.40;15.20;;;;;19.12;46.34;100146.06;5129732;27;8833;-70
2023/10/04 10:10:10;;;;;;;;;17.00;14.40;;;;;19.19;46.34;100151.09;5128886;27;8858;-70
2023/10/04 10:12:45;;;;;;;;;19.20;17.40;;;;;18.66;47.94;100163.25;5129792;27;8853;-68
2023/10/04 10:15:15;;;;;;;;;14.00;12.20;;;;;18.57;48.05;100169.84;5129529;27;8873;-69
2023/10/04 10:17:46;;;;;;;;;15.60;14.00;;;;;18.45;48.21;100159.75;5111300;27;8872;-67
2023/10/04 10:20:16;;;;;;;;;15.00;13.00;;;;;18.87;47.03;100169.44;5129311;27;8857;-69
2023/10/04 10:23:13;;;;;;;;;15.80;15.80;;;;;19.02;47.09;100165.19;5077881;27;8830;-68
2023/10/04 10:26:18;;;;;;;;;12.20;10.60;;;;;19.63;45.31;100162.31;5110734;27;8853;-69
2023/10/04 10:28:48;;;;;;;;;13.20;12.00;;;;;19.39;44.13;100167.00;5093466;27;8949;-68
2023/10/04 10:31:22;;;;;;;;;15.60;15.60;;;;;19.49;43.55;100167.41;5129343;27;8850;-67
2023/10/04 10:33:51;;;;;;;;;13.00;12.40;;;;;19.20;43.90;100175.00;5129275;27;8817;-70
2023/10/04 10:36:22;;;;;;;;;13.80;12.00;;;;;18.92;44.87;100165.63;5129247;27;8857;-71
2023/10/04 10:38:53;;;;;;;;;15.80;13.20;;;;;19.57;43.59;100162.59;5128899;27;8813;-72
2023/10/04 10:42:03;;;;;;;;;13.00;12.80;;;;;19.99;42.31;100172.13;5060133;27;9669;-68
2023/10/04 10:44:33;;;;;;;;;14.00;12.80;;;;;20.12;42.09;100163.47;5128937;27;8982;-69
2023/10/04 10:47:14;;;;;;;;;14.00;14.00;;;;;20.12;42.03;100161.66;5128888;27;8953;-72
2023/10/04 10:49:52;;;;;;;;;12.60;11.20;;;;;20.46;41.67;100149.25;5110835;27;8830;-70
2023/10/04 10:52:41;;;;;;;;;14.00;13.20;;;;;20.95;41.70;100157.34;5128718;27;8865;-71
2023/10/04 10:55:16;;;;;;;;;12.60;11.60;;;;;21.11;40.61;100159.19;5025458;28;8844;-69
2023/10/04 10:57:48;;;;;;;;;11.40;10.80;;;;;20.12;41.97;100163.47;5008961;28;8875;-69
2023/10/04 11:00:22;;;;;;;;;10.40;9.40;;;;;20.56;40.55;100145.19;5008955;28;9742;-71
2023/10/04 11:02:53;;;;;;;;;15.20;12.40;;;;;21.01;40.27;100134.75;5025559;28;8864;-68
2023/10/04 11:05:25;;;;;;;;;10.60;10.60;;;;;20.94;39.96;100149.44;5024996;28;9004;-68
2023/10/04 11:07:55;;;;;;;;;10.00;9.80;;;;;20.75;40.45;100142.38;5024765;28;8882;-70
2023/10/04 11:10:26;;;;;;;;;12.00;10.40;;;;;21.28;39.72;100134.19;5024824;28;8839;-68
2023/10/04 11:12:57;;;;;;;;;10.40;8.40;;;;;21.53;39.28;100129.16;5025121;28;8851;-68
2023/10/04 11:15:27;;;;;;;;;9.40;9.40;;;;;21.83;38.37;100128.38;5025079;28;8860;-69
2023/10/04 11:17:58;;;;;;;;;11.00;10.80;;;;;22.16;38.13;100122.78;5024931;28;9590;-70
2023/10/04 11:20:30;;;;;;;;;11.20;11.00;;;;;22.15;37.45;100120.25;5024710;28;8994;-71
2023/10/04 11:23:00;;;;;;;;;11.20;11.20;;;;;21.59;38.42;100118.13;5029042;28;8859;-70
2023/10/04 11:25:29;;;;;;;;;9.20;9.20;;;;;21.27;39.52;100117.28;5012543;28;8851;-70
2023/10/04 11:27:58;;;;;;;;;10.80;9.80;;;;;21.14;39.71;100125.13;5029402;28;9620;-69
2023/10/04 11:30:33;;;;;;;;;13.00;10.60;;;;;21.61;38.69;100118.91;5029474;28;8874;-69
2023/10/04 11:33:03;;;;;;;;;12.20;10.80;;;;;21.53;38.78;100109.59;5090264;28;8970;-69
2023/10/04 11:35:34;;;;;;;;;11.60;10.80;;;;;21.91;38.35;100109.19;5112681;28;8831;-69
2023/10/04 11:38:06;;;;;;;;;11.20;10.40;;;;;22.44;37.91;100096.19;5112025;28;8872;-70